sensor_id;sensor_type;location;lat;lon;timestamp;pressure;altitude;pressure_sealevel;temperature;humidity
52653;BME280;39353;42.864;12.014;2024-01-06T00:00:19;96070.08;;;22.95;52.49
52653;BME280;39353;42.864;12.014;2024-01-06T00:03:12;96073.67;;;22.95;52.44
52653;BME280;39353;42.864;12.014;2024-01-06T00:05:43;96067.23;;;22.95;52.49
52653;BME280;39353;42.864;12.014;2024-01-06T00:08:14;96062.95;;;22.95;52.54
52653;BME280;39353;42.864;12.014;2024-01-06T00:10:44;96064.43;;;22.95;52.46
52653;BME280;39353;42.864;12.014;2024-01-06T00:13:15;96062.25;;;22.94;52.56
52653;BME280;39353;42.864;12.014;2024-01-06T00:15:46;96047.65;;;22.93;52.43
52653;BME280;39353;42.864;12.014;2024-01-06T00:18:16;96041.69;;;22.91;52.54
52653;BME280;39353;42.864;12.014;2024-01-06T00:20:48;96038.18;;;22.92;52.57
52653;BME280;39353;42.864;12.014;2024-01-06T00:23:18;96033.42;;;22.91;52.58
52653;BME280;39353;42.864;12.014;2024-01-06T00:25:50;96031.58;;;22.90;52.55
52653;BME280;39353;42.864;12.014;2024-01-06T00:28:21;96025.88;;;22.90;52.65
52653;BME280;39353;42.864;12.014;2024-01-06T00:30:53;96019.58;;;22.90;52.66
52653;BME280;39353;42.864;12.014;2024-01-06T00:33:23;96015.27;;;22.91;52.53
52653;BME280;39353;42.864;12.014;2024-01-06T00:35:55;96015.15;;;22.92;52.49
52653;BME280;39353;42.864;12.014;2024-01-06T00:38:25;96013.77;;;22.92;52.60
52653;BME280;39353;42.864;12.014;2024-01-06T00:40:56;96012.63;;;22.92;52.52
52653;BME280;39353;42.864;12.014;2024-01-06T00:43:27;96013.09;;;22.89;52.53
52653;BME280;39353;42.864;12.014;2024-01-06T00:45:58;96010.30;;;22.86;52.63
52653;BME280;39353;42.864;12.014;2024-01-06T00:48:29;96011.39;;;22.83;52.72
52653;BME280;39353;42.864;12.014;2024-01-06T00:51:00;96012.33;;;22.80;52.79
52653;BME280;39353;42.864;12.014;2024-01-06T00:53:31;96015.28;;;22.78;52.77
52653;BME280;39353;42.864;12.014;2024-01-06T00:56:01;96012.98;;;22.75;52.73
52653;BME280;39353;42.864;12.014;2024-01-06T00:58:32;96017.91;;;22.72;52.88
52653;BME280;39353;42.864;12.014;2024-01-06T01:01:03;96018.63;;;22.70;52.94
52653;BME280;39353;42.864;12.014;2024-01-06T01:03:34;96018.23;;;22.67;52.94
52653;BME280;39353;42.864;12.014;2024-01-06T01:06:05;96017.37;;;22.65;52.97
52653;BME280;39353;42.864;12.014;2024-01-06T01:08:36;96021.15;;;22.63;52.95
52653;BME280;39353;42.864;12.014;2024-01-06T01:11:07;96016.29;;;22.60;53.12
52653;BME280;39353;42.864;12.014;2024-01-06T01:13:38;96020.21;;;22.57;53.15
52653;BME280;39353;42.864;12.014;2024-01-06T01:16:09;96019.23;;;22.55;53.14
52653;BME280;39353;42.864;12.014;2024-01-06T01:18:41;96019.17;;;22.51;53.30
52653;BME280;39353;42.864;12.014;2024-01-06T01:21:11;96018.09;;;22.48;53.34
52653;BME280;39353;42.864;12.014;2024-01-06T01:23:43;96016.65;;;22.45;53.41
52653;BME280;39353;42.864;12.014;2024-01-06T01:26:15;96016.46;;;22.42;53.38
52653;BME280;39353;42.864;12.014;2024-01-06T01:28:46;96008.86;;;22.39;53.32
52653;BME280;39353;42.864;12.014;2024-01-06T01:31:17;96006.17;;;22.37;53.39
52653;BME280;39353;42.864;12.014;2024-01-06T01:33:48;96000.55;;;22.33;53.51
52653;BME280;39353;42.864;12.014;2024-01-06T01:36:18;95995.20;;;22.29;53.52
52653;BME280;39353;42.864;12.014;2024-01-06T01:38:49;95994.09;;;22.25;53.49
52653;BME280;39353;42.864;12.014;2024-01-06T01:41:20;95995.13;;;22.24;53.54
52653;BME280;39353;42.864;12.014;2024-01-06T01:43:51;95991.58;;;22.21;53.61
52653;BME280;39353;42.864;12.014;2024-01-06T01:46:29;95986.89;;;22.18;53.55
52653;BME280;39353;42.864;12.014;2024-01-06T01:49:01;95991.08;;;22.15;53.75
52653;BME280;39353;42.864;12.014;2024-01-06T01:51:35;95984.52;;;22.12;53.70
52653;BME280;39353;42.864;12.014;2024-01-06T01:54:08;95989.17;;;22.11;53.68
52653;BME280;39353;42.864;12.014;2024-01-06T01:56:41;95986.33;;;22.07;53.75
52653;BME280;39353;42.864;12.014;2024-01-06T01:59:13;95983.69;;;22.05;53.80
52653;BME280;39353;42.864;12.014;2024-01-06T02:01:44;95984.02;;;22.04;53.78
52653;BME280;39353;42.864;12.014;2024-01-06T02:04:15;95984.89;;;22.02;53.74
52653;BME280;39353;42.864;12.014;2024-01-06T02:06:46;95979.75;;;22.00;53.82
52653;BME280;39353;42.864;12.014;2024-01-06T02:09:17;95970.89;;;21.98;53.83
52653;BME280;39353;42.864;12.014;2024-01-06T02:11:53;95966.14;;;21.96;53.94
52653;BME280;39353;42.864;12.014;2024-01-06T02:14:23;95967.39;;;21.94;53.86
52653;BME280;39353;42.864;12.014;2024-01-06T02:16:54;95958.48;;;21.92;53.84
52653;BME280;39353;42.864;12.014;2024-01-06T02:19:25;95952.97;;;21.90;53.99
52653;BME280;39353;42.864;12.014;2024-01-06T02:21:56;95949.67;;;21.87;54.06
52653;BME280;39353;42.864;12.014;2024-01-06T02:24:27;95944.94;;;21.83;54.10
52653;BME280;39353;42.864;12.014;2024-01-06T02:26:58;95945.86;;;21.82;54.11
52653;BME280;39353;42.864;12.014;2024-01-06T02:29:29;95942.36;;;21.81;54.07
52653;BME280;39353;42.864;12.014;2024-01-06T02:32:00;95943.89;;;21.78;54.19
52653;BME280;39353;42.864;12.014;2024-01-06T02:34:30;95939.62;;;21.77;54.16
52653;BME280;39353;42.864;12.014;2024-01-06T02:37:02;95934.82;;;21.75;54.30
52653;BME280;39353;42.864;12.014;2024-01-06T02:39:33;95930.77;;;21.73;54.30
52653;BME280;39353;42.864;12.014;2024-01-06T02:42:05;95931.16;;;21.71;54.25
52653;BME280;39353;42.864;12.014;2024-01-06T02:44:35;95926.95;;;21.70;54.23
52653;BME280;39353;42.864;12.014;2024-01-06T02:47:06;95926.56;;;21.67;54.35
52653;BME280;39353;42.864;12.014;2024-01-06T02:49:39;95921.80;;;21.65;54.26
52653;BME280;39353;42.864;12.014;2024-01-06T02:52:11;95921.04;;;21.64;54.39
52653;BME280;39353;42.864;12.014;2024-01-06T02:54:43;95916.55;;;21.63;54.25
52653;BME280;39353;42.864;12.014;2024-01-06T02:57:13;95915.55;;;21.62;54.24
52653;BME280;39353;42.864;12.014;2024-01-06T02:59:44;95911.77;;;21.58;54.18
52653;BME280;39353;42.864;12.014;2024-01-06T03:02:15;95906.69;;;21.57;54.32
52653;BME280;39353;42.864;12.014;2024-01-06T03:04:46;95907.63;;;21.56;54.22
52653;BME280;39353;42.864;12.014;2024-01-06T03:07:16;95900.14;;;21.54;54.40
52653;BME280;39353;42.864;12.014;2024-01-06T03:09:47;95900.95;;;21.53;54.29
52653;BME280;39353;42.864;12.014;2024-01-06T03:12:18;95896.15;;;21.51;54.37
52653;BME280;39353;42.864;12.014;2024-01-06T03:14:49;95897.34;;;21.49;54.42
52653;BME280;39353;42.864;12.014;2024-01-06T03:17:20;95900.17;;;21.49;54.43
52653;BME280;39353;42.864;12.014;2024-01-06T03:19:51;95896.73;;;21.47;54.53
52653;BME280;39353;42.864;12.014;2024-01-06T03:22:22;95893.07;;;21.45;54.50
52653;BME280;39353;42.864;12.014;2024-01-06T03:24:53;95891.16;;;21.44;54.45
52653;BME280;39353;42.864;12.014;2024-01-06T03:27:23;95889.96;;;21.43;54.50
52653;BME280;39353;42.864;12.014;2024-01-06T03:29:54;95882.11;;;21.42;54.53
52653;BME280;39353;42.864;12.014;2024-01-06T03:32:25;95877.94;;;21.39;54.55
52653;BME280;39353;42.864;12.014;2024-01-06T03:34:57;95870.57;;;21.38;54.51
52653;BME280;39353;42.864;12.014;2024-01-06T03:37:28;95862.82;;;21.38;54.55
52653;BME280;39353;42.864;12.014;2024-01-06T03:39:59;95863.42;;;21.37;54.62
52653;BME280;39353;42.864;12.014;2024-01-06T03:42:29;95864.05;;;21.36;54.61
52653;BME280;39353;42.864;12.014;2024-01-06T03:45:00;95861.23;;;21.35;54.58
52653;BME280;39353;42.864;12.014;2024-01-06T03:47:31;95855.93;;;21.33;54.64
52653;BME280;39353;42.864;12.014;2024-01-06T03:50:02;95850.54;;;21.33;54.61
52653;BME280;39353;42.864;12.014;2024-01-06T03:52:32;95850.81;;;21.32;54.51
52653;BME280;39353;42.864;12.014;2024-01-06T03:55:05;95846.50;;;21.30;54.53
52653;BME280;39353;42.864;12.014;2024-01-06T03:57:35;95842.95;;;21.28;54.44
52653;BME280;39353;42.864;12.014;2024-01-06T04:00:09;95841.36;;;21.27;54.53
52653;BME280;39353;42.864;12.014;2024-01-06T04:02:40;95837.59;;;21.27;54.64
52653;BME280;39353;42.864;12.014;2024-01-06T04:05:11;95835.09;;;21.26;54.57
52653;BME280;39353;42.864;12.014;2024-01-06T04:07:42;95840.71;;;21.25;54.54
52653;BME280;39353;42.864;12.014;2024-01-06T04:10:13;95827.50;;;21.24;54.56
52653;BME280;39353;42.864;12.014;2024-01-06T04:12:44;95831.59;;;21.24;54.60
52653;BME280;39353;42.864;12.014;2024-01-06T04:15:15;95831.02;;;21.22;54.55
52653;BME280;39353;42.864;12.014;2024-01-06T04:17:47;95825.08;;;21.20;54.46
52653;BME280;39353;42.864;12.014;2024-01-06T04:20:19;95824.80;;;21.20;54.54
52653;BME280;39353;42.864;12.014;2024-01-06T04:22:49;95821.48;;;21.19;54.55
52653;BME280;39353;42.864;12.014;2024-01-06T04:25:20;95817.45;;;21.17;54.55
52653;BME280;39353;42.864;12.014;2024-01-06T04:27:51;95815.76;;;21.18;54.56
52653;BME280;39353;42.864;12.014;2024-01-06T04:30:22;95810.88;;;21.16;54.58
52653;BME280;39353;42.864;12.014;2024-01-06T04:32:54;95808.49;;;21.15;54.52
52653;BME280;39353;42.864;12.014;2024-01-06T04:35:26;95811.23;;;21.16;54.62
52653;BME280;39353;42.864;12.014;2024-01-06T04:37:57;95823.71;;;21.15;54.56
52653;BME280;39353;42.864;12.014;2024-01-06T04:40:28;95814.88;;;21.15;54.63
52653;BME280;39353;42.864;12.014;2024-01-06T04:42:58;95806.04;;;21.15;54.59
52653;BME280;39353;42.864;12.014;2024-01-06T04:45:29;95802.92;;;21.14;54.69
52653;BME280;39353;42.864;12.014;2024-01-06T04:48:00;95800.30;;;21.12;54.60
52653;BME280;39353;42.864;12.014;2024-01-06T04:50:31;95801.54;;;21.10;54.66
52653;BME280;39353;42.864;12.014;2024-01-06T04:53:01;95801.92;;;21.09;54.63
52653;BME280;39353;42.864;12.014;2024-01-06T04:55:32;95799.64;;;21.09;54.60
52653;BME280;39353;42.864;12.014;2024-01-06T04:58:03;95793.30;;;21.08;54.71
52653;BME280;39353;42.864;12.014;2024-01-06T05:00:34;95791.66;;;21.08;54.66
52653;BME280;39353;42.864;12.014;2024-01-06T05:03:05;95791.17;;;21.06;54.72
52653;BME280;39353;42.864;12.014;2024-01-06T05:05:36;95787.02;;;21.06;54.54
52653;BME280;39353;42.864;12.014;2024-01-06T05:08:07;95782.73;;;21.06;54.67
52653;BME280;39353;42.864;12.014;2024-01-06T05:10:38;95785.08;;;21.05;54.64
52653;BME280;39353;42.864;12.014;2024-01-06T05:13:09;95785.19;;;21.03;54.71
52653;BME280;39353;42.864;12.014;2024-01-06T05:15:40;95779.34;;;21.01;54.68
52653;BME280;39353;42.864;12.014;2024-01-06T05:18:11;95777.43;;;21.02;54.72
52653;BME280;39353;42.864;12.014;2024-01-06T05:20:41;95780.53;;;21.01;54.65
52653;BME280;39353;42.864;12.014;2024-01-06T05:23:12;95774.64;;;21.00;54.74
52653;BME280;39353;42.864;12.014;2024-01-06T05:25:43;95776.86;;;20.98;54.74
52653;BME280;39353;42.864;12.014;2024-01-06T05:28:14;95772.50;;;20.97;54.63
52653;BME280;39353;42.864;12.014;2024-01-06T05:30:45;95773.66;;;20.97;54.63
52653;BME280;39353;42.864;12.014;2024-01-06T05:33:17;95771.90;;;20.96;54.73
52653;BME280;39353;42.864;12.014;2024-01-06T05:35:48;95767.16;;;20.96;54.60
52653;BME280;39353;42.864;12.014;2024-01-06T05:38:18;95767.27;;;20.96;54.68
52653;BME280;39353;42.864;12.014;2024-01-06T05:40:49;95771.63;;;20.95;54.57
52653;BME280;39353;42.864;12.014;2024-01-06T05:43:20;95771.25;;;20.94;54.68
52653;BME280;39353;42.864;12.014;2024-01-06T05:45:50;95772.23;;;20.94;54.50
52653;BME280;39353;42.864;12.014;2024-01-06T05:48:21;95771.13;;;20.92;54.49
52653;BME280;39353;42.864;12.014;2024-01-06T05:50:52;95773.09;;;20.91;54.69
52653;BME280;39353;42.864;12.014;2024-01-06T05:53:23;95772.88;;;20.90;54.67
52653;BME280;39353;42.864;12.014;2024-01-06T05:55:53;95777.50;;;20.89;54.65
52653;BME280;39353;42.864;12.014;2024-01-06T05:58:24;95774.23;;;20.89;54.75
52653;BME280;39353;42.864;12.014;2024-01-06T06:00:55;95771.11;;;20.88;54.73
52653;BME280;39353;42.864;12.014;2024-01-06T06:03:25;95774.06;;;20.87;54.67
52653;BME280;39353;42.864;12.014;2024-01-06T06:05:56;95766.75;;;20.86;54.67
52653;BME280;39353;42.864;12.014;2024-01-06T06:08:27;95770.45;;;20.83;54.67
52653;BME280;39353;42.864;12.014;2024-01-06T06:10:58;95767.61;;;20.84;54.68
52653;BME280;39353;42.864;12.014;2024-01-06T06:13:30;95776.65;;;20.83;54.63
52653;BME280;39353;42.864;12.014;2024-01-06T06:16:02;95778.89;;;20.82;54.70
52653;BME280;39353;42.864;12.014;2024-01-06T06:18:33;95769.25;;;20.81;54.62
52653;BME280;39353;42.864;12.014;2024-01-06T06:21:05;95775.84;;;20.82;54.68
52653;BME280;39353;42.864;12.014;2024-01-06T06:23:37;95772.52;;;20.82;54.73
52653;BME280;39353;42.864;12.014;2024-01-06T06:26:08;95782.55;;;20.81;54.64
52653;BME280;39353;42.864;12.014;2024-01-06T06:28:39;95792.79;;;20.80;54.68
52653;BME280;39353;42.864;12.014;2024-01-06T06:31:10;95789.36;;;20.79;54.66
52653;BME280;39353;42.864;12.014;2024-01-06T06:33:41;95790.61;;;20.78;54.71
52653;BME280;39353;42.864;12.014;2024-01-06T06:36:12;95805.71;;;20.78;54.69
52653;BME280;39353;42.864;12.014;2024-01-06T06:38:42;95815.42;;;20.78;54.72
52653;BME280;39353;42.864;12.014;2024-01-06T06:41:13;95805.81;;;20.79;54.59
52653;BME280;39353;42.864;12.014;2024-01-06T06:43:45;95801.90;;;20.79;54.59
52653;BME280;39353;42.864;12.014;2024-01-06T06:46:16;95799.93;;;20.78;54.68
52653;BME280;39353;42.864;12.014;2024-01-06T06:48:47;95800.13;;;20.76;54.63
52653;BME280;39353;42.864;12.014;2024-01-06T06:51:18;95807.36;;;20.76;54.83
52653;BME280;39353;42.864;12.014;2024-01-06T06:53:51;95805.61;;;20.75;54.71
52653;BME280;39353;42.864;12.014;2024-01-06T06:56:22;95799.95;;;20.74;54.75
52653;BME280;39353;42.864;12.014;2024-01-06T06:58:53;95797.27;;;20.74;54.81
52653;BME280;39353;42.864;12.014;2024-01-06T07:01:23;95795.48;;;20.74;54.79
52653;BME280;39353;42.864;12.014;2024-01-06T07:03:54;95794.59;;;20.73;54.79
52653;BME280;39353;42.864;12.014;2024-01-06T07:06:25;95802.17;;;20.72;54.80
52653;BME280;39353;42.864;12.014;2024-01-06T07:08:56;95804.77;;;20.70;54.86
52653;BME280;39353;42.864;12.014;2024-01-06T07:11:28;95804.77;;;20.69;54.83
52653;BME280;39353;42.864;12.014;2024-01-06T07:13:58;95805.30;;;20.68;54.79
52653;BME280;39353;42.864;12.014;2024-01-06T07:16:29;95803.56;;;20.69;54.74
52653;BME280;39353;42.864;12.014;2024-01-06T07:19:00;95810.31;;;20.67;54.73
52653;BME280;39353;42.864;12.014;2024-01-06T07:21:31;95800.40;;;20.66;54.66
52653;BME280;39353;42.864;12.014;2024-01-06T07:24:03;95799.48;;;20.65;54.67
52653;BME280;39353;42.864;12.014;2024-01-06T07:26:33;95813.42;;;20.64;54.65
52653;BME280;39353;42.864;12.014;2024-01-06T07:29:06;95823.06;;;20.64;54.74
52653;BME280;39353;42.864;12.014;2024-01-06T07:31:37;95816.84;;;20.62;54.71
52653;BME280;39353;42.864;12.014;2024-01-06T07:34:08;95809.27;;;20.62;54.64
52653;BME280;39353;42.864;12.014;2024-01-06T07:36:38;95805.79;;;20.62;54.55
52653;BME280;39353;42.864;12.014;2024-01-06T07:39:09;95802.89;;;20.63;54.60
52653;BME280;39353;42.864;12.014;2024-01-06T07:41:40;95799.34;;;20.62;54.58
52653;BME280;39353;42.864;12.014;2024-01-06T07:44:11;95809.15;;;20.61;54.76
52653;BME280;39353;42.864;12.014;2024-01-06T07:46:42;95818.36;;;20.60;54.76
52653;BME280;39353;42.864;12.014;2024-01-06T07:49:13;95817.75;;;20.59;54.65
52653;BME280;39353;42.864;12.014;2024-01-06T07:51:45;95813.27;;;20.58;54.77
52653;BME280;39353;42.864;12.014;2024-01-06T07:54:15;95815.77;;;20.57;54.78
52653;BME280;39353;42.864;12.014;2024-01-06T07:56:46;95815.98;;;20.57;54.68
52653;BME280;39353;42.864;12.014;2024-01-06T07:59:17;95813.05;;;20.56;54.68
52653;BME280;39353;42.864;12.014;2024-01-06T08:01:48;95806.44;;;20.55;54.83
52653;BME280;39353;42.864;12.014;2024-01-06T08:04:18;95803.79;;;20.58;54.78
52653;BME280;39353;42.864;12.014;2024-01-06T08:06:51;95792.63;;;20.61;54.62
52653;BME280;39353;42.864;12.014;2024-01-06T08:09:22;95790.08;;;20.62;54.72
52653;BME280;39353;42.864;12.014;2024-01-06T08:11:54;95791.17;;;20.61;54.76
52653;BME280;39353;42.864;12.014;2024-01-06T08:14:24;95796.73;;;20.61;54.66
52653;BME280;39353;42.864;12.014;2024-01-06T08:16:55;95795.25;;;20.60;54.70
52653;BME280;39353;42.864;12.014;2024-01-06T08:19:26;95802.17;;;20.61;54.67
52653;BME280;39353;42.864;12.014;2024-01-06T08:21:59;95803.81;;;20.62;54.76
52653;BME280;39353;42.864;12.014;2024-01-06T08:24:30;95804.46;;;20.61;54.03
52653;BME280;39353;42.864;12.014;2024-01-06T08:27:00;95803.68;;;20.59;54.52
52653;BME280;39353;42.864;12.014;2024-01-06T08:29:31;95808.59;;;20.59;54.50
52653;BME280;39353;42.864;12.014;2024-01-06T08:32:02;95808.70;;;20.58;54.62
52653;BME280;39353;42.864;12.014;2024-01-06T08:34:34;95812.41;;;20.58;54.56
52653;BME280;39353;42.864;12.014;2024-01-06T08:37:05;95810.09;;;20.54;54.59
52653;BME280;39353;42.864;12.014;2024-01-06T08:39:36;95813.27;;;20.57;54.64
52653;BME280;39353;42.864;12.014;2024-01-06T08:42:07;95815.77;;;20.55;54.41
52653;BME280;39353;42.864;12.014;2024-01-06T08:44:38;95820.29;;;20.56;54.59
52653;BME280;39353;42.864;12.014;2024-01-06T08:47:09;95816.48;;;20.56;54.80
52653;BME280;39353;42.864;12.014;2024-01-06T08:49:40;95810.70;;;20.56;54.68
52653;BME280;39353;42.864;12.014;2024-01-06T08:52:11;95808.68;;;20.55;54.81
52653;BME280;39353;42.864;12.014;2024-01-06T08:54:42;95811.85;;;20.58;54.60
52653;BME280;39353;42.864;12.014;2024-01-06T08:57:12;95816.71;;;20.59;54.62
52653;BME280;39353;42.864;12.014;2024-01-06T08:59:43;95810.17;;;20.59;54.63
52653;BME280;39353;42.864;12.014;2024-01-06T09:02:14;95813.45;;;20.59;54.62
52653;BME280;39353;42.864;12.014;2024-01-06T09:04:46;95815.79;;;20.59;54.72
52653;BME280;39353;42.864;12.014;2024-01-06T09:07:18;95811.38;;;20.59;54.64
52653;BME280;39353;42.864;12.014;2024-01-06T09:09:49;95808.98;;;20.60;54.70
52653;BME280;39353;42.864;12.014;2024-01-06T09:12:21;95807.71;;;20.59;54.55
52653;BME280;39353;42.864;12.014;2024-01-06T09:14:52;95808.31;;;20.59;54.61
52653;BME280;39353;42.864;12.014;2024-01-06T09:17:23;95815.08;;;20.59;54.82
52653;BME280;39353;42.864;12.014;2024-01-06T09:19:54;95819.81;;;20.59;54.77
52653;BME280;39353;42.864;12.014;2024-01-06T09:22:24;95820.20;;;20.60;54.59
52653;BME280;39353;42.864;12.014;2024-01-06T09:24:55;95825.89;;;20.62;54.68
52653;BME280;39353;42.864;12.014;2024-01-06T09:27:27;95825.13;;;20.63;54.59
52653;BME280;39353;42.864;12.014;2024-01-06T09:29:57;95824.91;;;20.63;54.73
52653;BME280;39353;42.864;12.014;2024-01-06T09:32:28;95819.83;;;20.62;54.78
52653;BME280;39353;42.864;12.014;2024-01-06T09:34:59;95821.63;;;20.61;54.54
52653;BME280;39353;42.864;12.014;2024-01-06T09:37:30;95818.98;;;20.64;54.79
52653;BME280;39353;42.864;12.014;2024-01-06T09:40:01;95814.34;;;20.64;54.60
52653;BME280;39353;42.864;12.014;2024-01-06T09:42:32;95814.08;;;20.65;54.66
52653;BME280;39353;42.864;12.014;2024-01-06T09:45:03;95810.20;;;20.65;54.64
52653;BME280;39353;42.864;12.014;2024-01-06T09:47:35;95807.20;;;20.67;54.77
52653;BME280;39353;42.864;12.014;2024-01-06T09:50:10;95808.19;;;20.68;54.66
52653;BME280;39353;42.864;12.014;2024-01-06T09:52:42;95806.58;;;20.71;54.76
52653;BME280;39353;42.864;12.014;2024-01-06T09:55:13;95802.44;;;20.73;54.55
52653;BME280;39353;42.864;12.014;2024-01-06T09:57:46;95800.09;;;20.72;54.77
52653;BME280;39353;42.864;12.014;2024-01-06T10:00:19;95798.79;;;20.73;54.72
52653;BME280;39353;42.864;12.014;2024-01-06T10:02:50;95794.75;;;20.72;54.52
52653;BME280;39353;42.864;12.014;2024-01-06T10:05:21;95786.84;;;20.69;54.56
52653;BME280;39353;42.864;12.014;2024-01-06T10:07:52;95783.17;;;20.67;54.57
52653;BME280;39353;42.864;12.014;2024-01-06T10:10:23;95787.37;;;20.65;54.59
52653;BME280;39353;42.864;12.014;2024-01-06T10:12:55;95779.67;;;20.63;54.58
52653;BME280;39353;42.864;12.014;2024-01-06T10:15:27;95780.60;;;20.63;54.67
52653;BME280;39353;42.864;12.014;2024-01-06T10:17:58;95775.15;;;20.62;54.63
52653;BME280;39353;42.864;12.014;2024-01-06T10:20:29;95772.69;;;20.61;54.68
52653;BME280;39353;42.864;12.014;2024-01-06T10:23:05;95768.33;;;20.61;54.63
52653;BME280;39353;42.864;12.014;2024-01-06T10:25:36;95759.71;;;20.62;54.58
52653;BME280;39353;42.864;12.014;2024-01-06T10:28:10;95753.73;;;20.61;54.58
52653;BME280;39353;42.864;12.014;2024-01-06T10:30:41;95745.82;;;20.60;54.46
52653;BME280;39353;42.864;12.014;2024-01-06T10:33:13;95747.45;;;20.61;54.61
52653;BME280;39353;42.864;12.014;2024-01-06T10:35:44;95741.95;;;20.62;54.52
52653;BME280;39353;42.864;12.014;2024-01-06T10:38:15;95740.44;;;20.63;54.63
52653;BME280;39353;42.864;12.014;2024-01-06T10:40:59;95735.52;;;20.63;54.28
52653;BME280;39353;42.864;12.014;2024-01-06T10:43:34;95741.14;;;20.62;54.32
52653;BME280;39353;42.864;12.014;2024-01-06T10:46:07;95736.39;;;20.61;54.44
52653;BME280;39353;42.864;12.014;2024-01-06T10:48:41;95733.51;;;20.61;54.34
52653;BME280;39353;42.864;12.014;2024-01-06T10:51:15;95728.97;;;20.60;54.34
52653;BME280;39353;42.864;12.014;2024-01-06T10:53:45;95727.29;;;20.59;54.21
52653;BME280;39353;42.864;12.014;2024-01-06T10:56:18;95722.33;;;20.59;54.33
52653;BME280;39353;42.864;12.014;2024-01-06T10:58:50;95716.61;;;20.60;54.28
52653;BME280;39353;42.864;12.014;2024-01-06T11:01:25;95712.51;;;20.59;54.16
52653;BME280;39353;42.864;12.014;2024-01-06T11:03:56;95709.63;;;20.59;54.18
52653;BME280;39353;42.864;12.014;2024-01-06T11:06:29;95711.00;;;20.60;54.07
52653;BME280;39353;42.864;12.014;2024-01-06T11:09:09;95706.96;;;20.60;54.11
52653;BME280;39353;42.864;12.014;2024-01-06T11:11:42;95703.09;;;20.59;53.95
52653;BME280;39353;42.864;12.014;2024-01-06T11:14:22;95692.86;;;20.59;54.08
52653;BME280;39353;42.864;12.014;2024-01-06T11:16:55;95686.56;;;20.58;54.04
52653;BME280;39353;42.864;12.014;2024-01-06T11:19:43;95682.55;;;20.60;53.94
52653;BME280;39353;42.864;12.014;2024-01-06T11:22:35;95675.08;;;20.60;54.13
52653;BME280;39353;42.864;12.014;2024-01-06T11:25:15;95666.69;;;20.59;54.06
52653;BME280;39353;42.864;12.014;2024-01-06T11:27:47;95667.89;;;20.59;54.06
52653;BME280;39353;42.864;12.014;2024-01-06T11:30:23;95660.97;;;20.60;54.24
52653;BME280;39353;42.864;12.014;2024-01-06T11:32:55;95657.38;;;20.62;53.86
52653;BME280;39353;42.864;12.014;2024-01-06T11:35:29;95651.22;;;20.63;53.78
52653;BME280;39353;42.864;12.014;2024-01-06T11:38:02;95647.84;;;20.65;53.90
52653;BME280;39353;42.864;12.014;2024-01-06T11:40:35;95650.52;;;20.65;53.60
52653;BME280;39353;42.864;12.014;2024-01-06T11:43:08;95650.95;;;20.63;53.71
52653;BME280;39353;42.864;12.014;2024-01-06T11:45:42;95646.36;;;20.61;53.87
52653;BME280;39353;42.864;12.014;2024-01-06T11:48:13;95647.29;;;20.60;53.62
52653;BME280;39353;42.864;12.014;2024-01-06T11:50:45;95642.48;;;20.59;53.52
52653;BME280;39353;42.864;12.014;2024-01-06T11:53:16;95639.59;;;20.58;53.59
52653;BME280;39353;42.864;12.014;2024-01-06T11:55:49;95636.66;;;20.58;53.92
52653;BME280;39353;42.864;12.014;2024-01-06T11:58:21;95631.97;;;20.58;54.10
52653;BME280;39353;42.864;12.014;2024-01-06T12:00:57;95627.49;;;20.56;53.90
52653;BME280;39353;42.864;12.014;2024-01-06T12:03:28;95625.10;;;20.57;53.51
52653;BME280;39353;42.864;12.014;2024-01-06T12:06:04;95619.82;;;20.58;53.85
52653;BME280;39353;42.864;12.014;2024-01-06T12:08:35;95617.09;;;20.59;53.79
52653;BME280;39353;42.864;12.014;2024-01-06T12:11:07;95614.59;;;20.61;53.93
52653;BME280;39353;42.864;12.014;2024-01-06T12:13:38;95614.48;;;20.61;53.89
52653;BME280;39353;42.864;12.014;2024-01-06T12:16:08;95608.38;;;20.60;53.85
52653;BME280;39353;42.864;12.014;2024-01-06T12:18:39;95608.77;;;20.61;53.90
52653;BME280;39353;42.864;12.014;2024-01-06T12:21:11;95602.98;;;20.61;53.98
52653;BME280;39353;42.864;12.014;2024-01-06T12:23:42;95599.27;;;20.61;53.85
52653;BME280;39353;42.864;12.014;2024-01-06T12:26:12;95595.90;;;20.60;53.93
52653;BME280;39353;42.864;12.014;2024-01-06T12:28:45;95590.11;;;20.58;53.94
52653;BME280;39353;42.864;12.014;2024-01-06T12:31:16;95590.11;;;20.56;54.07
52653;BME280;39353;42.864;12.014;2024-01-06T12:33:48;95581.07;;;20.56;54.00
52653;BME280;39353;42.864;12.014;2024-01-06T12:36:20;95580.08;;;20.56;54.12
52653;BME280;39353;42.864;12.014;2024-01-06T12:38:52;95576.27;;;20.55;53.98
52653;BME280;39353;42.864;12.014;2024-01-06T12:41:25;95577.20;;;20.54;54.05
52653;BME280;39353;42.864;12.014;2024-01-06T12:43:56;95571.46;;;20.54;54.09
52653;BME280;39353;42.864;12.014;2024-01-06T12:46:27;95569.30;;;20.54;54.05
52653;BME280;39353;42.864;12.014;2024-01-06T12:48:58;95568.09;;;20.53;53.98
52653;BME280;39353;42.864;12.014;2024-01-06T12:51:29;95565.42;;;20.53;54.08
52653;BME280;39353;42.864;12.014;2024-01-06T12:54:00;95562.16;;;20.53;54.08
52653;BME280;39353;42.864;12.014;2024-01-06T12:56:31;95560.52;;;20.52;54.35
52653;BME280;39353;42.864;12.014;2024-01-06T12:59:02;95557.48;;;20.51;54.36
52653;BME280;39353;42.864;12.014;2024-01-06T13:01:33;95557.92;;;20.50;54.28
52653;BME280;39353;42.864;12.014;2024-01-06T13:04:04;95557.15;;;20.49;54.24
52653;BME280;39353;42.864;12.014;2024-01-06T13:06:35;95551.70;;;20.49;54.29
52653;BME280;39353;42.864;12.014;2024-01-06T13:09:06;95552.08;;;20.49;54.28
52653;BME280;39353;42.864;12.014;2024-01-06T13:11:38;95548.92;;;20.51;54.15